sensor_id;sensor_type;location;lat;lon;timestamp;temperature;humidity
1107;DHT22;540;49.448;8.612;2023-10-31T00:00:50;12.70;99.90
1107;DHT22;540;49.448;8.612;2023-10-31T00:03:18;13.00;99.90
1107;DHT22;540;49.448;8.612;2023-10-31T00:05:46;13.00;99.90
1107;DHT22;540;49.448;8.612;2023-10-31T00:08:14;12.80;99.90
1107;DHT22;540;49.448;8.612;2023-10-31T00:10:42;12.60;99.90
1107;DHT22;540;49.448;8.612;2023-10-31T00:13:11;13.00;99.90
1107;DHT22;540;49.448;8.612;2023-10-31T00:15:41;12.70;99.90
1107;DHT22;540;49.448;8.612;2023-10-31T00:18:09;12.80;99.90
1107;DHT22;540;49.448;8.612;2023-10-31T00:20:37;12.80;99.90
1107;DHT22;540;49.448;8.612;2023-10-31T00:23:05;12.60;99.90
1107;DHT22;540;49.448;8.612;2023-10-31T00:25:33;12.50;99.90
1107;DHT22;540;49.448;8.612;2023-10-31T00:28:01;12.60;99.90
1107;DHT22;540;49.448;8.612;2023-10-31T00:30:29;12.80;99.90
1107;DHT22;540;49.448;8.612;2023-10-31T00:32:58;12.60;99.90
1107;DHT22;540;49.448;8.612;2023-10-31T00:35:26;12.80;99.90
1107;DHT22;540;49.448;8.612;2023-10-31T00:37:54;12.80;99.90
1107;DHT22;540;49.448;8.612;2023-10-31T00:40:22;12.50;99.90
1107;DHT22;540;49.448;8.612;2023-10-31T00:42:50;12.50;99.90
1107;DHT22;540;49.448;8.612;2023-10-31T00:45:18;12.60;99.90
1107;DHT22;540;49.448;8.612;2023-10-31T00:47:46;12.40;99.90
1107;DHT22;540;49.448;8.612;2023-10-31T00:50:15;12.00;99.90
1107;DHT22;540;49.448;8.612;2023-10-31T00:52:43;12.60;99.90
1107;DHT22;540;49.448;8.612;2023-10-31T00:55:11;12.60;99.90
1107;DHT22;540;49.448;8.612;2023-10-31T00:57:39;12.30;99.90
1107;DHT22;540;49.448;8.612;2023-10-31T01:00:09;12.30;99.90
1107;DHT22;540;49.448;8.612;2023-10-31T01:02:37;11.90;99.90
1107;DHT22;540;49.448;8.612;2023-10-31T01:05:06;12.60;99.90
1107;DHT22;540;49.448;8.612;2023-10-31T01:07:35;12.40;99.90
1107;DHT22;540;49.448;8.612;2023-10-31T01:10:04;12.70;99.90
1107;DHT22;540;49.448;8.612;2023-10-31T01:12:32;12.30;99.90
1107;DHT22;540;49.448;8.612;2023-10-31T01:15:02;12.40;99.90
1107;DHT22;540;49.448;8.612;2023-10-31T01:17:30;12.10;99.90
1107;DHT22;540;49.448;8.612;2023-10-31T01:19:58;12.20;99.90
1107;DHT22;540;49.448;8.612;2023-10-31T01:22:26;12.00;99.90
1107;DHT22;540;49.448;8.612;2023-10-31T01:24:55;12.10;99.90
1107;DHT22;540;49.448;8.612;2023-10-31T01:27:23;12.00;99.90
1107;DHT22;540;49.448;8.612;2023-10-31T01:29:50;12.30;99.90
1107;DHT22;540;49.448;8.612;2023-10-31T01:32:18;12.00;99.90
1107;DHT22;540;49.448;8.612;2023-10-31T01:35:04;12.10;99.90
1107;DHT22;540;49.448;8.612;2023-10-31T01:37:32;12.30;99.90
1107;DHT22;540;49.448;8.612;2023-10-31T01:40:03;12.10;99.90
1107;DHT22;540;49.448;8.612;2023-10-31T01:42:31;12.00;99.90
1107;DHT22;540;49.448;8.612;2023-10-31T01:44:59;12.00;99.90
1107;DHT22;540;49.448;8.612;2023-10-31T01:47:27;12.00;99.90
1107;DHT22;540;49.448;8.612;2023-10-31T01:49:55;12.00;99.90
1107;DHT22;540;49.448;8.612;2023-10-31T01:52:23;12.20;99.90
1107;DHT22;540;49.448;8.612;2023-10-31T01:54:51;12.10;99.90
1107;DHT22;540;49.448;8.612;2023-10-31T01:57:21;11.90;99.90
1107;DHT22;540;49.448;8.612;2023-10-31T01:59:52;12.30;99.90
1107;DHT22;540;49.448;8.612;2023-10-31T02:02:21;11.40;99.90
1107;DHT22;540;49.448;8.612;2023-10-31T02:04:50;11.80;99.90
1107;DHT22;540;49.448;8.612;2023-10-31T02:07:18;12.00;99.90
1107;DHT22;540;49.448;8.612;2023-10-31T02:09:47;11.50;99.90
1107;DHT22;540;49.448;8.612;2023-10-31T02:15:09;11.90;99.90
1107;DHT22;540;49.448;8.612;2023-10-31T02:17:38;11.80;99.90
1107;DHT22;540;49.448;8.612;2023-10-31T02:20:07;11.80;99.90
1107;DHT22;540;49.448;8.612;2023-10-31T02:22:36;11.80;99.90
1107;DHT22;540;49.448;8.612;2023-10-31T02:25:15;12.10;99.90
1107;DHT22;540;49.448;8.612;2023-10-31T02:27:43;11.90;99.90
1107;DHT22;540;49.448;8.612;2023-10-31T02:30:12;11.90;99.90
1107;DHT22;540;49.448;8.612;2023-10-31T02:32:41;12.00;99.90
1107;DHT22;540;49.448;8.612;2023-10-31T02:35:09;11.90;99.90
1107;DHT22;540;49.448;8.612;2023-10-31T02:37:38;12.30;99.90
1107;DHT22;540;49.448;8.612;2023-10-31T02:40:07;12.00;99.90
1107;DHT22;540;49.448;8.612;2023-10-31T02:42:35;12.10;99.90
1107;DHT22;540;49.448;8.612;2023-10-31T02:45:04;12.10;99.90
1107;DHT22;540;49.448;8.612;2023-10-31T02:47:31;12.00;99.90
1107;DHT22;540;49.448;8.612;2023-10-31T02:49:59;12.20;99.90
1107;DHT22;540;49.448;8.612;2023-10-31T02:52:27;12.00;99.90
1107;DHT22;540;49.448;8.612;2023-10-31T02:54:56;12.10;99.90
1107;DHT22;540;49.448;8.612;2023-10-31T02:57:24;12.10;99.90
1107;DHT22;540;49.448;8.612;2023-10-31T02:59:52;12.10;99.90
1107;DHT22;540;49.448;8.612;2023-10-31T03:02:20;12.10;99.90
1107;DHT22;540;49.448;8.612;2023-10-31T03:04:49;11.90;99.90
1107;DHT22;540;49.448;8.612;2023-10-31T03:07:17;12.00;99.90
1107;DHT22;540;49.448;8.612;2023-10-31T03:09:44;12.20;99.90
1107;DHT22;540;49.448;8.612;2023-10-31T03:12:14;12.20;99.90
1107;DHT22;540;49.448;8.612;2023-10-31T03:14:42;12.10;99.90
1107;DHT22;540;49.448;8.612;2023-10-31T03:17:10;12.00;99.90
1107;DHT22;540;49.448;8.612;2023-10-31T03:19:38;12.00;99.90
1107;DHT22;540;49.448;8.612;2023-10-31T03:22:06;12.10;99.90
1107;DHT22;540;49.448;8.612;2023-10-31T03:24:34;12.10;99.90
1107;DHT22;540;49.448;8.612;2023-10-31T03:27:02;12.10;99.90
1107;DHT22;540;49.448;8.612;2023-10-31T03:29:31;12.00;99.90
1107;DHT22;540;49.448;8.612;2023-10-31T03:31:59;12.00;99.90
1107;DHT22;540;49.448;8.612;2023-10-31T03:34:27;11.80;99.90
1107;DHT22;540;49.448;8.612;2023-10-31T03:36:54;11.80;99.90
1107;DHT22;540;49.448;8.612;2023-10-31T03:39:22;11.50;99.90
1107;DHT22;540;49.448;8.612;2023-10-31T03:41:50;11.70;99.90
1107;DHT22;540;49.448;8.612;2023-10-31T03:44:18;11.80;99.90
1107;DHT22;540;49.448;8.612;2023-10-31T03:46:47;11.70;99.90
1107;DHT22;540;49.448;8.612;2023-10-31T03:49:15;11.60;99.90
1107;DHT22;540;49.448;8.612;2023-10-31T03:51:43;11.50;99.90
1107;DHT22;540;49.448;8.612;2023-10-31T03:54:10;11.70;99.90
1107;DHT22;540;49.448;8.612;2023-10-31T03:56:39;11.70;99.90
1107;DHT22;540;49.448;8.612;2023-10-31T03:59:07;11.60;99.90
1107;DHT22;540;49.448;8.612;2023-10-31T04:01:35;11.70;99.90
1107;DHT22;540;49.448;8.612;2023-10-31T04:04:05;11.60;99.90
1107;DHT22;540;49.448;8.612;2023-10-31T04:06:33;11.90;99.90
1107;DHT22;540;49.448;8.612;2023-10-31T04:09:00;11.50;99.90
1107;DHT22;540;49.448;8.612;2023-10-31T04:11:28;11.70;99.90
1107;DHT22;540;49.448;8.612;2023-10-31T04:13:56;11.70;99.90
1107;DHT22;540;49.448;8.612;2023-10-31T04:16:24;11.80;99.90
1107;DHT22;540;49.448;8.612;2023-10-31T04:18:52;11.50;99.90
1107;DHT22;540;49.448;8.612;2023-10-31T04:21:21;11.70;99.90
1107;DHT22;540;49.448;8.612;2023-10-31T04:23:49;12.00;99.90
1107;DHT22;540;49.448;8.612;2023-10-31T04:26:17;11.90;99.90
1107;DHT22;540;49.448;8.612;2023-10-31T04:28:45;12.00;99.90
1107;DHT22;540;49.448;8.612;2023-10-31T04:31:12;11.90;99.90
1107;DHT22;540;49.448;8.612;2023-10-31T04:33:40;11.80;99.90
1107;DHT22;540;49.448;8.612;2023-10-31T04:36:08;11.70;99.90
1107;DHT22;540;49.448;8.612;2023-10-31T04:38:38;11.80;99.90
1107;DHT22;540;49.448;8.612;2023-10-31T04:41:07;11.70;99.90
1107;DHT22;540;49.448;8.612;2023-10-31T04:43:36;11.90;99.90
1107;DHT22;540;49.448;8.612;2023-10-31T04:46:03;11.80;99.90
1107;DHT22;540;49.448;8.612;2023-10-31T04:48:31;11.80;99.90
1107;DHT22;540;49.448;8.612;2023-10-31T04:50:59;11.90;99.90
1107;DHT22;540;49.448;8.612;2023-10-31T04:53:27;12.20;99.90
1107;DHT22;540;49.448;8.612;2023-10-31T04:55:56;11.70;99.90
1107;DHT22;540;49.448;8.612;2023-10-31T04:58:24;11.80;99.90
1107;DHT22;540;49.448;8.612;2023-10-31T05:00:52;11.60;99.90
1107;DHT22;540;49.448;8.612;2023-10-31T05:03:20;11.80;99.90
1107;DHT22;540;49.448;8.612;2023-10-31T05:05:47;11.60;99.90
1107;DHT22;540;49.448;8.612;2023-10-31T05:08:15;11.80;99.90
1107;DHT22;540;49.448;8.612;2023-10-31T05:10:43;12.00;99.90
1107;DHT22;540;49.448;8.612;2023-10-31T05:13:15;12.10;99.90
1107;DHT22;540;49.448;8.612;2023-10-31T05:15:43;11.90;99.90
1107;DHT22;540;49.448;8.612;2023-10-31T05:18:11;11.80;99.90
1107;DHT22;540;49.448;8.612;2023-10-31T05:20:38;11.80;99.90
1107;DHT22;540;49.448;8.612;2023-10-31T05:23:06;11.90;99.90
1107;DHT22;540;49.448;8.612;2023-10-31T05:25:35;11.70;99.90
1107;DHT22;540;49.448;8.612;2023-10-31T05:28:04;12.00;99.90
1107;DHT22;540;49.448;8.612;2023-10-31T05:30:33;11.80;99.90
1107;DHT22;540;49.448;8.612;2023-10-31T05:33:01;11.90;99.90
1107;DHT22;540;49.448;8.612;2023-10-31T05:35:29;11.80;99.90
1107;DHT22;540;49.448;8.612;2023-10-31T05:37:57;11.70;99.90
1107;DHT22;540;49.448;8.612;2023-10-31T05:40:25;11.90;99.90
1107;DHT22;540;49.448;8.612;2023-10-31T05:42:54;11.90;99.90
1107;DHT22;540;49.448;8.612;2023-10-31T05:45:22;11.80;99.90
1107;DHT22;540;49.448;8.612;2023-10-31T05:47:51;11.90;99.90
1107;DHT22;540;49.448;8.612;2023-10-31T05:50:19;12.00;99.90
1107;DHT22;540;49.448;8.612;2023-10-31T05:52:47;11.90;99.90
1107;DHT22;540;49.448;8.612;2023-10-31T05:55:15;11.90;99.90
1107;DHT22;540;49.448;8.612;2023-10-31T05:57:43;12.00;99.90
1107;DHT22;540;49.448;8.612;2023-10-31T06:00:11;11.80;99.90
1107;DHT22;540;49.448;8.612;2023-10-31T06:02:39;11.70;99.90
1107;DHT22;540;49.448;8.612;2023-10-31T06:05:09;11.80;99.90
1107;DHT22;540;49.448;8.612;2023-10-31T06:07:37;11.70;99.90
1107;DHT22;540;49.448;8.612;2023-10-31T06:10:06;12.00;99.90
1107;DHT22;540;49.448;8.612;2023-10-31T06:12:34;11.80;99.90
1107;DHT22;540;49.448;8.612;2023-10-31T06:15:02;11.70;99.90
1107;DHT22;540;49.448;8.612;2023-10-31T06:17:30;11.70;99.90
1107;DHT22;540;49.448;8.612;2023-10-31T06:20:01;11.20;99.90
1107;DHT22;540;49.448;8.612;2023-10-31T06:22:30;11.70;99.90
1107;DHT22;540;49.448;8.612;2023-10-31T06:24:58;11.60;99.90
1107;DHT22;540;49.448;8.612;2023-10-31T06:27:26;11.70;99.90
1107;DHT22;540;49.448;8.612;2023-10-31T06:29:53;11.80;99.90
1107;DHT22;540;49.448;8.612;2023-10-31T06:32:42;11.90;99.90
1107;DHT22;540;49.448;8.612;2023-10-31T06:35:10;11.80;99.90
1107;DHT22;540;49.448;8.612;2023-10-31T06:37:39;11.70;99.90
1107;DHT22;540;49.448;8.612;2023-10-31T06:40:07;11.80;99.90
1107;DHT22;540;49.448;8.612;2023-10-31T06:42:36;11.70;99.90
1107;DHT22;540;49.448;8.612;2023-10-31T06:45:04;11.70;99.90
1107;DHT22;540;49.448;8.612;2023-10-31T06:47:32;11.70;99.90
1107;DHT22;540;49.448;8.612;2023-10-31T06:50:00;11.70;99.90
1107;DHT22;540;49.448;8.612;2023-10-31T06:52:28;12.00;99.90
1107;DHT22;540;49.448;8.612;2023-10-31T06:54:57;11.80;99.90
1107;DHT22;540;49.448;8.612;2023-10-31T06:57:25;11.50;99.90
1107;DHT22;540;49.448;8.612;2023-10-31T06:59:53;11.70;99.90
1107;DHT22;540;49.448;8.612;2023-10-31T07:02:21;11.70;99.90
1107;DHT22;540;49.448;8.612;2023-10-31T07:04:49;11.70;99.90
1107;DHT22;540;49.448;8.612;2023-10-31T07:07:17;11.60;99.90
1107;DHT22;540;49.448;8.612;2023-10-31T07:09:45;11.70;99.90
1107;DHT22;540;49.448;8.612;2023-10-31T07:12:15;11.80;99.90
1107;DHT22;540;49.448;8.612;2023-10-31T07:14:43;11.60;99.90
1107;DHT22;540;49.448;8.612;2023-10-31T07:17:10;11.60;99.90
1107;DHT22;540;49.448;8.612;2023-10-31T07:19:38;11.70;99.90
1107;DHT22;540;49.448;8.612;2023-10-31T07:22:06;11.70;99.90
1107;DHT22;540;49.448;8.612;2023-10-31T07:24:34;11.70;99.90
1107;DHT22;540;49.448;8.612;2023-10-31T07:27:03;11.60;99.90
1107;DHT22;540;49.448;8.612;2023-10-31T07:29:32;11.70;99.90
1107;DHT22;540;49.448;8.612;2023-10-31T07:32:00;11.70;99.90
1107;DHT22;540;49.448;8.612;2023-10-31T07:34:29;11.90;99.90
1107;DHT22;540;49.448;8.612;2023-10-31T07:36:57;11.90;99.90
1107;DHT22;540;49.448;8.612;2023-10-31T07:39:25;11.80;99.90
1107;DHT22;540;49.448;8.612;2023-10-31T07:41:53;12.00;99.90
1107;DHT22;540;49.448;8.612;2023-10-31T07:44:21;11.80;99.90
1107;DHT22;540;49.448;8.612;2023-10-31T07:46:50;11.70;99.90
1107;DHT22;540;49.448;8.612;2023-10-31T07:49:18;12.00;99.90
1107;DHT22;540;49.448;8.612;2023-10-31T07:51:47;12.00;99.90
1107;DHT22;540;49.448;8.612;2023-10-31T07:54:15;12.10;99.90
1107;DHT22;540;49.448;8.612;2023-10-31T07:56:43;12.00;99.90
1107;DHT22;540;49.448;8.612;2023-10-31T07:59:11;12.00;99.90
1107;DHT22;540;49.448;8.612;2023-10-31T08:01:39;12.00;99.90
1107;DHT22;540;49.448;8.612;2023-10-31T08:04:08;12.00;99.90
1107;DHT22;540;49.448;8.612;2023-10-31T08:06:36;12.10;99.90
1107;DHT22;540;49.448;8.612;2023-10-31T08:09:04;12.00;99.90
1107;DHT22;540;49.448;8.612;2023-10-31T08:11:35;12.00;99.90
1107;DHT22;540;49.448;8.612;2023-10-31T08:14:03;12.20;99.90
1107;DHT22;540;49.448;8.612;2023-10-31T08:16:31;12.10;99.90
1107;DHT22;540;49.448;8.612;2023-10-31T08:18:58;12.20;99.90
1107;DHT22;540;49.448;8.612;2023-10-31T08:21:28;12.10;99.90
1107;DHT22;540;49.448;8.612;2023-10-31T08:24:00;12.20;99.90
1107;DHT22;540;49.448;8.612;2023-10-31T08:26:27;12.70;99.90
1107;DHT22;540;49.448;8.612;2023-10-31T08:28:55;12.30;99.90
1107;DHT22;540;49.448;8.612;2023-10-31T08:31:23;11.90;99.90
1107;DHT22;540;49.448;8.612;2023-10-31T08:33:51;12.40;99.90
1107;DHT22;540;49.448;8.612;2023-10-31T08:36:19;12.30;99.90
1107;DHT22;540;49.448;8.612;2023-10-31T08:38:48;12.40;99.90
1107;DHT22;540;49.448;8.612;2023-10-31T08:41:16;12.70;99.90
1107;DHT22;540;49.448;8.612;2023-10-31T08:43:46;12.70;99.90
1107;DHT22;540;49.448;8.612;2023-10-31T08:46:14;12.80;99.90
1107;DHT22;540;49.448;8.612;2023-10-31T08:48:43;13.10;99.90
1107;DHT22;540;49.448;8.612;2023-10-31T08:51:11;12.90;99.90
1107;DHT22;540;49.448;8.612;2023-10-31T08:53:39;13.00;99.90
1107;DHT22;540;49.448;8.612;2023-10-31T08:56:08;13.10;99.90
1107;DHT22;540;49.448;8.612;2023-10-31T08:58:36;13.30;99.90
1107;DHT22;540;49.448;8.612;2023-10-31T09:01:04;13.30;99.90
1107;DHT22;540;49.448;8.612;2023-10-31T09:03:34;13.20;99.90
1107;DHT22;540;49.448;8.612;2023-10-31T09:06:03;13.10;99.90
1107;DHT22;540;49.448;8.612;2023-10-31T09:08:32;13.30;99.90
1107;DHT22;540;49.448;8.612;2023-10-31T09:11:01;13.40;99.90
1107;DHT22;540;49.448;8.612;2023-10-31T09:13:32;13.40;99.90
1107;DHT22;540;49.448;8.612;2023-10-31T09:16:01;13.50;99.90
1107;DHT22;540;49.448;8.612;2023-10-31T09:18:30;13.10;99.90
1107;DHT22;540;49.448;8.612;2023-10-31T09:20:59;13.20;99.90
1107;DHT22;540;49.448;8.612;2023-10-31T09:23:28;13.20;99.90
1107;DHT22;540;49.448;8.612;2023-10-31T09:25:57;13.30;99.90
1107;DHT22;540;49.448;8.612;2023-10-31T09:28:26;13.10;99.90
1107;DHT22;540;49.448;8.612;2023-10-31T09:30:57;13.50;99.90
1107;DHT22;540;49.448;8.612;2023-10-31T09:33:27;13.30;99.90
1107;DHT22;540;49.448;8.612;2023-10-31T09:35:56;13.70;99.90
1107;DHT22;540;49.448;8.612;2023-10-31T09:38:24;14.30;99.90
1107;DHT22;540;49.448;8.612;2023-10-31T09:40:54;14.60;99.90
1107;DHT22;540;49.448;8.612;2023-10-31T09:43:22;15.70;99.30
1107;DHT22;540;49.448;8.612;2023-10-31T09:45:50;15.90;96.90
1107;DHT22;540;49.448;8.612;2023-10-31T09:48:20;16.30;95.50
1107;DHT22;540;49.448;8.612;2023-10-31T09:50:48;16.70;93.70
1107;DHT22;540;49.448;8.612;2023-10-31T09:53:16;16.90;92.40
1107;DHT22;540;49.448;8.612;2023-10-31T09:55:45;17.70;91.30
1107;DHT22;540;49.448;8.612;2023-10-31T09:58:13;17.90;86.20
1107;DHT22;540;49.448;8.612;2023-10-31T10:00:40;17.70;85.70
1107;DHT22;540;49.448;8.612;2023-10-31T10:03:08;17.10;85.50
1107;DHT22;540;49.448;8.612;2023-10-31T10:05:39;17.10;85.10
1107;DHT22;540;49.448;8.612;2023-10-31T10:08:07;17.00;86.50
1107;DHT22;540;49.448;8.612;2023-10-31T10:10:35;16.40;87.40
1107;DHT22;540;49.448;8.612;2023-10-31T10:13:03;16.60;89.30
1107;DHT22;540;49.448;8.612;2023-10-31T10:15:43;16.40;89.90
1107;DHT22;540;49.448;8.612;2023-10-31T10:18:24;16.20;90.60
1107;DHT22;540;49.448;8.612;2023-10-31T10:20:57;16.20;90.10
1107;DHT22;540;49.448;8.612;2023-10-31T10:23:26;15.60;90.70
1107;DHT22;540;49.448;8.612;2023-10-31T10:25:56;15.50;92.20
1107;DHT22;540;49.448;8.612;2023-10-31T10:28:24;14.90;93.60
1107;DHT22;540;49.448;8.612;2023-10-31T10:30:53;15.10;94.10
1107;DHT22;540;49.448;8.612;2023-10-31T10:33:21;15.40;93.70
1107;DHT22;540;49.448;8.612;2023-10-31T10:35:49;15.60;93.00
1107;DHT22;540;49.448;8.612;2023-10-31T10:38:19;16.20;92.70
1107;DHT22;540;49.448;8.612;2023-10-31T10:40:48;16.60;90.70
1107;DHT22;540;49.448;8.612;2023-10-31T10:43:21;16.50;90.40
1107;DHT22;540;49.448;8.612;2023-10-31T10:45:54;16.40;90.70
1107;DHT22;540;49.448;8.612;2023-10-31T10:48:24;16.30;91.40
1107;DHT22;540;49.448;8.612;2023-10-31T10:51:00;16.10;91.20
1107;DHT22;540;49.448;8.612;2023-10-31T10:53:35;16.00;91.70
1107;DHT22;540;49.448;8.612;2023-10-31T10:56:09;15.80;90.90
1107;DHT22;540;49.448;8.612;2023-10-31T10:58:47;15.40;91.10
1107;DHT22;540;49.448;8.612;2023-10-31T11:01:19;15.60;91.10
1107;DHT22;540;49.448;8.612;2023-10-31T11:03:47;15.80;90.40
1107;DHT22;540;49.448;8.612;2023-10-31T11:06:15;15.90;90.50
1107;DHT22;540;49.448;8.612;2023-10-31T11:08:45;15.60;88.40
1107;DHT22;540;49.448;8.612;2023-10-31T11:11:14;15.50;88.90
1107;DHT22;540;49.448;8.612;2023-10-31T11:13:43;15.40;89.20
1107;DHT22;540;49.448;8.612;2023-10-31T11:16:15;15.40;89.00
1107;DHT22;540;49.448;8.612;2023-10-31T11:18:45;15.20;89.60
1107;DHT22;540;49.448;8.612;2023-10-31T11:21:13;15.10;90.20
1107;DHT22;540;49.448;8.612;2023-10-31T11:23:41;15.40;90.60
1107;DHT22;540;49.448;8.612;2023-10-31T11:26:10;15.10;90.00
1107;DHT22;540;49.448;8.612;2023-10-31T11:28:38;15.50;90.00
1107;DHT22;540;49.448;8.612;2023-10-31T11:31:08;15.20;90.40
1107;DHT22;540;49.448;8.612;2023-10-31T11:33:39;15.30;90.10
1107;DHT22;540;49.448;8.612;2023-10-31T11:36:11;15.80;90.30
1107;DHT22;540;49.448;8.612;2023-10-31T11:38:40;16.10;88.80
1107;DHT22;540;49.448;8.612;2023-10-31T11:41:10;16.40;87.00
1107;DHT22;540;49.448;8.612;2023-10-31T11:43:51;16.60;86.00
1107;DHT22;540;49.448;8.612;2023-10-31T11:46:20;16.50;87.00
1107;DHT22;540;49.448;8.612;2023-10-31T11:48:50;16.90;86.80
1107;DHT22;540;49.448;8.612;2023-10-31T11:51:19;17.20;85.20
1107;DHT22;540;49.448;8.612;2023-10-31T11:53:48;17.50;84.20
1107;DHT22;540;49.448;8.612;2023-10-31T11:56:17;17.40;82.40
1107;DHT22;540;49.448;8.612;2023-10-31T11:58:55;16.90;82.80
1107;DHT22;540;49.448;8.612;2023-10-31T12:01:22;16.80;84.20
1107;DHT22;540;49.448;8.612;2023-10-31T12:03:50;16.70;84.50
1107;DHT22;540;49.448;8.612;2023-10-31T12:06:18;16.70;83.50
1107;DHT22;540;49.448;8.612;2023-10-31T12:08:48;16.90;83.90
1107;DHT22;540;49.448;8.612;2023-10-31T12:11:18;17.80;81.00
1107;DHT22;540;49.448;8.612;2023-10-31T12:13:55;17.70;80.30
1107;DHT22;540;49.448;8.612;2023-10-31T12:16:24;18.20;79.50
1107;DHT22;540;49.448;8.612;2023-10-31T12:18:57;17.90;77.90
1107;DHT22;540;49.448;8.612;2023-10-31T12:21:38;18.30;77.30
1107;DHT22;540;49.448;8.612;2023-10-31T12:24:08;18.20;75.80
1107;DHT22;540;49.448;8.612;2023-10-31T12:26:38;18.20;75.40
1107;DHT22;540;49.448;8.612;2023-10-31T12:29:07;17.90;76.30
1107;DHT22;540;49.448;8.612;2023-10-31T12:31:39;17.80;76.70
1107;DHT22;540;49.448;8.612;2023-10-31T12:34:07;17.70;78.60
1107;DHT22;540;49.448;8.612;2023-10-31T12:36:36;17.40;81.40
1107;DHT22;540;49.448;8.612;2023-10-31T12:39:05;17.40;80.70
1107;DHT22;540;49.448;8.612;2023-10-31T12:41:35;17.30;80.60
1107;DHT22;540;49.448;8.612;2023-10-31T12:44:06;17.50;81.60
1107;DHT22;540;49.448;8.612;2023-10-31T12:46:39;17.30;80.50
1107;DHT22;540;49.448;8.612;2023-10-31T12:49:11;17.30;81.70
1107;DHT22;540;49.448;8.612;2023-10-31T12:51:55;16.50;82.80
1107;DHT22;540;49.448;8.612;2023-10-31T12:54:28;16.90;86.30
1107;DHT22;540;49.448;8.612;2023-10-31T12:56:59;17.50;84.10
1107;DHT22;540;49.448;8.612;2023-10-31T12:59:29;18.20;79.10
1107;DHT22;540;49.448;8.612;2023-10-31T13:01:57;18.20;76.30
1107;DHT22;540;49.448;8.612;2023-10-31T13:04:25;17.80;77.40
1107;DHT22;540;49.448;8.612;2023-10-31T13:06:58;17.40;78.20
1107;DHT22;540;49.448;8.612;2023-10-31T13:09:29;16.80;80.20
1107;DHT22;540;49.448;8.612;2023-10-31T13:11:59;16.50;81.80
1107;DHT22;540;49.448;8.612;2023-10-31T13:14:29;16.30;85.20
1107;DHT22;540;49.448;8.612;2023-10-31T13:16:57;15.80;87.40
1107;DHT22;540;49.448;8.612;2023-10-31T13:19:25;15.80;88.90
1107;DHT22;540;49.448;8.612;2023-10-31T13:21:53;16.00;89.00
1107;DHT22;540;49.448;8.612;2023-10-31T13:24:21;15.70;90.00
1107;DHT22;540;49.448;8.612;2023-10-31T13:26:49;15.50;90.60
1107;DHT22;540;49.448;8.612;2023-10-31T13:29:19;15.70;90.90
1107;DHT22;540;49.448;8.612;2023-10-31T13:31:48;15.50;90.80
1107;DHT22;540;49.448;8.612;2023-10-31T13:34:17;15.70;91.00
1107;DHT22;540;49.448;8.612;2023-10-31T13:36:44;15.90;90.60
1107;DHT22;540;49.448;8.612;2023-10-31T13:39:12;16.70;89.60
1107;DHT22;540;49.448;8.612;2023-10-31T13:41:40;16.80;86.10
1107;DHT22;540;49.448;8.612;2023-10-31T13:44:08;17.10;86.10
1107;DHT22;540;49.448;8.612;2023-10-31T13:46:36;16.80;85.10
1107;DHT22;540;49.448;8.612;2023-10-31T13:49:05;16.60;85.90
1107;DHT22;540;49.448;8.612;2023-10-31T13:51:36;16.40;87.10
1107;DHT22;540;49.448;8.612;2023-10-31T13:54:04;16.40;87.60
1107;DHT22;540;49.448;8.612;2023-10-31T13:56:32;16.00;89.10
1107;DHT22;540;49.448;8.612;2023-10-31T13:59:02;15.80;90.10
1107;DHT22;540;49.448;8.612;2023-10-31T14:01:29;15.70;90.80
1107;DHT22;540;49.448;8.612;2023-10-31T14:03:57;15.90;91.70
1107;DHT22;540;49.448;8.612;2023-10-31T14:06:27;15.90;92.10
1107;DHT22;540;49.448;8.612;2023-10-31T14:08:58;15.50;91.80
1107;DHT22;540;49.448;8.612;2023-10-31T14:11:26;15.50;92.30
1107;DHT22;540;49.448;8.612;2023-10-31T14:13:54;15.70;92.40
1107;DHT22;540;49.448;8.612;2023-10-31T14:16:22;15.20;92.50
1107;DHT22;540;49.448;8.612;2023-10-31T14:18:50;15.70;92.70
1107;DHT22;540;49.448;8.612;2023-10-31T14:21:17;16.10;92.80
1107;DHT22;540;49.448;8.612;2023-10-31T14:23:47;15.70;92.70
1107;DHT22;540;49.448;8.612;2023-10-31T14:26:30;15.60;92.60
1107;DHT22;540;49.448;8.612;2023-10-31T14:28:59;15.50;92.80
1107;DHT22;540;49.448;8.612;2023-10-31T14:31:27;15.50;93.00
1107;DHT22;540;49.448;8.612;2023-10-31T14:33:55;15.70;93.20
1107;DHT22;540;49.448;8.612;2023-10-31T14:36:24;15.20;93.50
1107;DHT22;540;49.448;8.612;2023-10-31T14:38:53;15.20;94.30
1107;DHT22;540;49.448;8.612;2023-10-31T14:41:21;15.20;94.90
1107;DHT22;540;49.448;8.612;2023-10-31T14:43:50;15.10;95.50
1107;DHT22;540;49.448;8.612;2023-10-31T14:46:18;15.30;96.40
1107;DHT22;540;49.448;8.612;2023-10-31T14:48:46;15.10;97.10
1107;DHT22;540;49.448;8.612;2023-10-31T14:51:13;15.20;97.70
1107;DHT22;540;49.448;8.612;2023-10-31T14:53:42;15.30;98.40
1107;DHT22;540;49.448;8.612;2023-10-31T14:56:11;15.20;99.20
1107;DHT22;540;49.448;8.612;2023-10-31T14:58:40;15.00;99.70
1107;DHT22;540;49.448;8.612;2023-10-31T15:01:08;14.60;99.90
1107;DHT22;540;49.448;8.612;2023-10-31T15:03:36;14.50;99.90
1107;DHT22;540;49.448;8.612;2023-10-31T15:06:04;14.70;99.90
1107;DHT22;540;49.448;8.612;2023-10-31T15:08:34;14.70;99.90
1107;DHT22;540;49.448;8.612;2023-10-31T15:11:02;14.40;99.90
1107;DHT22;540;49.448;8.612;2023-10-31T15:13:32;14.30;99.90
1107;DHT22;540;49.448;8.612;2023-10-31T15:16:00;14.40;99.90
1107;DHT22;540;49.448;8.612;2023-10-31T15:18:29;14.30;99.90
1107;DHT22;540;49.448;8.612;2023-10-31T15:20:57;14.20;99.90
1107;DHT22;540;49.448;8.612;2023-10-31T15:23:28;14.10;99.90
1107;DHT22;540;49.448;8.612;2023-10-31T15:25:57;14.00;99.90
1107;DHT22;540;49.448;8.612;2023-10-31T15:28:25;13.90;99.90
1107;DHT22;540;49.448;8.612;2023-10-31T15:30:55;14.10;99.90
1107;DHT22;540;49.448;8.612;2023-10-31T15:33:22;13.90;99.90
1107;DHT22;540;49.448;8.612;2023-10-31T15:35:50;13.80;99.90
1107;DHT22;540;49.448;8.612;2023-10-31T15:38:18;13.80;99.90
1107;DHT22;540;49.448;8.612;2023-10-31T15:40:46;14.00;99.90
1107;DHT22;540;49.448;8.612;2023-10-31T15:43:14;13.90;99.90
1107;DHT22;540;49.448;8.612;2023-10-31T15:45:42;13.80;99.90
1107;DHT22;540;49.448;8.612;2023-10-31T15:48:11;13.90;99.90
1107;DHT22;540;49.448;8.612;2023-10-31T15:50:40;13.90;99.90
1107;DHT22;540;49.448;8.612;2023-10-31T15:53:09;13.60;99.90
1107;DHT22;540;49.448;8.612;2023-10-31T15:55:36;13.90;99.90
1107;DHT22;540;49.448;8.612;2023-10-31T15:58:04;13.60;99.90
1107;DHT22;540;49.448;8.612;2023-10-31T16:00:32;13.80;99.90
1107;DHT22;540;49.448;8.612;2023-10-31T16:03:00;13.30;99.90
1107;DHT22;540;49.448;8.612;2023-10-31T16:05:30;13.60;99.90
1107;DHT22;540;49.448;8.612;2023-10-31T16:08:00;13.80;99.90
1107;DHT22;540;49.448;8.612;2023-10-31T16:10:28;13.90;99.90
1107;DHT22;540;49.448;8.612;2023-10-31T16:12:56;13.60;99.90
1107;DHT22;540;49.448;8.612;2023-10-31T16:15:24;13.70;99.90
1107;DHT22;540;49.448;8.612;2023-10-31T16:17:52;13.70;99.90
1107;DHT22;540;49.448;8.612;2023-10-31T16:20:20;13.70;99.90
1107;DHT22;540;49.448;8.612;2023-10-31T16:22:49;13.70;99.90
1107;DHT22;540;49.448;8.612;2023-10-31T16:25:17;13.60;99.90
1107;DHT22;540;49.448;8.612;2023-10-31T16:27:45;13.60;99.90
1107;DHT22;540;49.448;8.612;2023-10-31T16:30:14;13.70;99.90